createdAt,value
2023-09-23T00:00:14.823Z,0.30
2023-09-23T00:02:44.667Z,0.40
2023-09-23T00:05:12.962Z,0.20
2023-09-23T00:07:41.964Z,0.30
2023-09-23T00:10:10.110Z,0.32
2023-09-23T00:12:37.745Z,0.30
2023-09-23T00:15:08.697Z,0.40
2023-09-23T00:17:39.231Z,0.30
2023-09-23T00:20:15.907Z,0.32
2023-09-23T00:22:43.695Z,0.40
2023-09-23T00:25:10.980Z,0.30
2023-09-23T00:27:38.001Z,0.40
2023-09-23T00:30:06.172Z,0.40
2023-09-23T00:32:34.160Z,0.30
2023-09-23T00:35:01.041Z,0.20
2023-09-23T00:37:28.190Z,0.40
2023-09-23T00:39:54.948Z,0.32
2023-09-23T00:42:22.307Z,0.20
2023-09-23T00:44:49.028Z,0.30
2023-09-23T00:47:17.732Z,0.40
2023-09-23T00:49:45.776Z,0.40
2023-09-23T00:52:15.153Z,0.40
2023-09-23T00:54:42.808Z,0.20
2023-09-23T00:57:11.329Z,0.50
2023-09-23T00:59:38.350Z,0.30
2023-09-23T01:02:06.293Z,0.30
2023-09-23T01:04:34.934Z,0.30
2023-09-23T01:07:10.451Z,0.40
2023-09-23T01:09:38.468Z,0.30
2023-09-23T01:12:05.762Z,0.40
2023-09-23T01:14:32.893Z,0.30
2023-09-23T01:17:08.111Z,0.32
2023-09-23T01:19:35.689Z,0.20
2023-09-23T01:22:02.835Z,0.50
2023-09-23T01:24:31.460Z,0.30
2023-09-23T01:26:58.194Z,0.30
2023-09-23T01:29:24.980Z,0.20
2023-09-23T01:32:16.956Z,0.20
2023-09-23T01:34:43.790Z,0.30
2023-09-23T01:37:10.814Z,0.28
2023-09-23T01:39:41.647Z,0.32
2023-09-23T01:42:08.905Z,0.38
2023-09-23T01:44:35.672Z,0.22
2023-09-23T01:47:02.530Z,0.30
2023-09-23T01:49:29.256Z,0.32
2023-09-23T01:51:56.157Z,0.40
2023-09-23T01:54:22.935Z,0.60
2023-09-23T01:56:49.809Z,0.30
2023-09-23T01:59:16.620Z,0.40
2023-09-23T02:01:45.147Z,0.30
2023-09-23T02:04:12.279Z,0.30
2023-09-23T02:06:43.654Z,0.40
2023-09-23T02:09:10.897Z,0.40
2023-09-23T02:11:38.404Z,0.30
2023-09-23T02:14:08.553Z,0.50
2023-09-23T02:16:35.510Z,0.35
2023-09-23T02:19:03.388Z,0.30
2023-09-23T02:21:31.477Z,0.30
2023-09-23T02:23:58.350Z,0.20
2023-09-23T02:26:25.544Z,0.47
2023-09-23T02:28:53.497Z,0.30
2023-09-23T02:31:20.710Z,0.57
2023-09-23T02:33:47.849Z,0.20
2023-09-23T02:36:15.117Z,0.30
2023-09-23T02:38:46.078Z,0.28
2023-09-23T02:41:14.079Z,0.28
2023-09-23T02:43:41.383Z,0.40
2023-09-23T02:46:08.717Z,0.38
2023-09-23T02:48:35.496Z,0.32
2023-09-23T02:51:05.134Z,0.30
2023-09-23T02:53:32.098Z,0.30
2023-09-23T02:56:09.251Z,0.30
2023-09-23T02:58:36.488Z,0.50
2023-09-23T03:01:06.103Z,0.30
2023-09-23T03:03:34.966Z,0.20
2023-09-23T03:06:04.992Z,0.43
2023-09-23T03:08:31.952Z,0.40
2023-09-23T03:11:03.955Z,0.40
2023-09-23T03:13:30.820Z,0.30
2023-09-23T03:16:09.840Z,0.40
2023-09-23T03:19:05.930Z,0.30
2023-09-23T03:21:32.669Z,0.30
2023-09-23T03:24:00.888Z,0.40
2023-09-23T03:26:27.789Z,0.50
2023-09-23T03:28:54.649Z,0.30
2023-09-23T03:31:21.482Z,0.60
2023-09-23T03:33:51.678Z,0.50
2023-09-23T03:36:18.535Z,0.20
2023-09-23T03:38:45.655Z,0.40
2023-09-23T03:41:13.122Z,0.40
2023-09-23T03:43:40.597Z,0.30
2023-09-23T03:46:17.251Z,0.30
2023-09-23T03:48:47.943Z,0.30
2023-09-23T03:51:16.165Z,0.40
2023-09-23T03:53:46.386Z,0.50
2023-09-23T03:56:13.245Z,0.30
2023-09-23T03:58:40.101Z,0.38
2023-09-23T04:01:11.377Z,0.40
2023-09-23T04:03:38.213Z,0.40
2023-09-23T04:06:06.487Z,0.30
2023-09-23T04:08:33.273Z,0.47
2023-09-23T04:11:06.937Z,0.35
2023-09-23T04:13:33.936Z,0.40
2023-09-23T04:16:01.819Z,0.40
2023-09-23T04:18:34.366Z,0.40
2023-09-23T04:21:03.868Z,0.43
2023-09-23T04:23:31.158Z,0.30
2023-09-23T04:25:58.838Z,0.30
2023-09-23T04:28:25.621Z,0.47
2023-09-23T04:30:55.558Z,0.40
2023-09-23T04:33:23.976Z,1.02
2023-09-23T04:35:52.431Z,0.30
2023-09-23T04:38:19.353Z,0.30
2023-09-23T04:40:46.203Z,0.32
2023-09-23T04:43:13.472Z,0.30
2023-09-23T04:45:40.256Z,0.60
2023-09-23T04:48:07.921Z,0.40
2023-09-23T04:50:35.634Z,0.40
2023-09-23T04:53:03.802Z,0.30
2023-09-23T04:55:30.593Z,0.40
2023-09-23T04:57:57.312Z,0.40
2023-09-23T05:00:24.079Z,0.30
2023-09-23T05:02:51.027Z,0.30
2023-09-23T05:05:19.914Z,0.35
2023-09-23T05:07:46.839Z,0.30
2023-09-23T05:10:14.049Z,0.30
2023-09-23T05:12:41.330Z,0.40
2023-09-23T05:15:11.317Z,0.30
2023-09-23T05:17:38.593Z,0.50
2023-09-23T05:20:22.993Z,0.40
2023-09-23T05:22:50.104Z,0.38
2023-09-23T05:25:17.082Z,0.28
2023-09-23T05:27:47.228Z,0.40
2023-09-23T05:30:14.000Z,0.30
2023-09-23T05:32:40.804Z,0.40
2023-09-23T05:35:12.479Z,0.30
2023-09-23T05:37:44.121Z,0.30
2023-09-23T05:40:24.629Z,0.55
2023-09-23T05:42:52.024Z,0.70
2023-09-23T05:45:19.442Z,0.43
2023-09-23T05:47:49.514Z,0.47
2023-09-23T05:50:21.405Z,0.40
2023-09-23T05:52:49.143Z,0.50
2023-09-23T05:55:16.099Z,0.40
2023-09-23T05:57:43.428Z,0.60
2023-09-23T06:00:16.199Z,0.40
2023-09-23T06:02:46.074Z,0.40
2023-09-23T06:05:13.012Z,0.32
2023-09-23T06:07:39.985Z,0.40
2023-09-23T06:10:07.436Z,0.40
2023-09-23T06:12:34.753Z,0.43
2023-09-23T06:15:02.236Z,0.57
2023-09-23T06:17:29.836Z,0.50
2023-09-23T06:19:57.584Z,0.50
2023-09-23T06:22:24.599Z,0.40
2023-09-23T06:24:51.671Z,0.50
2023-09-23T06:27:19.348Z,0.40
2023-09-23T06:29:46.987Z,0.40
2023-09-23T06:32:16.881Z,0.50
2023-09-23T06:34:43.720Z,0.45
2023-09-23T06:37:10.518Z,0.45
2023-09-23T06:39:37.321Z,0.35
2023-09-23T06:42:04.233Z,0.50
2023-09-23T06:44:31.116Z,0.38
2023-09-23T06:46:59.266Z,0.50
2023-09-23T06:49:27.700Z,0.50
2023-09-23T06:51:54.420Z,0.57
2023-09-23T06:54:21.136Z,0.60
2023-09-23T06:56:47.931Z,0.60
2023-09-23T06:59:14.702Z,0.50
2023-09-23T07:01:41.486Z,0.57
2023-09-23T07:04:10.164Z,0.50
2023-09-23T07:06:37.062Z,0.63
2023-09-23T07:09:06.459Z,0.50
2023-09-23T07:11:33.387Z,0.60
2023-09-23T07:14:01.865Z,0.50
2023-09-23T07:16:28.985Z,0.45
2023-09-23T07:18:55.835Z,0.45
2023-09-23T07:21:22.684Z,0.43
2023-09-23T07:23:49.433Z,0.30
2023-09-23T07:26:22.944Z,0.30
2023-09-23T07:28:52.769Z,0.32
2023-09-23T07:31:19.567Z,0.38
2023-09-23T07:33:46.839Z,0.55
2023-09-23T07:36:14.306Z,0.30
2023-09-23T07:38:41.662Z,0.50
2023-09-23T07:41:08.907Z,0.60
2023-09-23T07:43:35.682Z,0.50
2023-09-23T07:46:02.476Z,0.40
2023-09-23T07:48:29.227Z,0.65
2023-09-23T07:50:55.951Z,0.60
2023-09-23T07:53:23.316Z,0.40
2023-09-23T07:55:50.521Z,0.75
2023-09-23T07:58:17.397Z,0.75
2023-09-23T08:00:44.367Z,0.30
2023-09-23T08:03:11.152Z,0.45
2023-09-23T08:05:38.045Z,0.60
2023-09-23T08:08:05.211Z,0.38
2023-09-23T08:10:32.737Z,0.40
2023-09-23T08:12:59.504Z,0.60
2023-09-23T08:15:26.279Z,0.40
2023-09-23T08:17:53.085Z,0.82
2023-09-23T08:20:22.763Z,0.32
2023-09-23T08:22:49.700Z,0.60
2023-09-23T08:25:17.309Z,0.60
2023-09-23T08:27:44.154Z,0.40
2023-09-23T08:30:11.671Z,0.40
2023-09-23T08:32:39.733Z,0.40
2023-09-23T08:35:08.737Z,0.50
2023-09-23T08:37:36.240Z,0.47
2023-09-23T08:40:13.232Z,0.50
2023-09-23T08:42:40.501Z,0.55
2023-09-23T08:45:10.982Z,0.52
2023-09-23T08:47:38.749Z,0.50
2023-09-23T08:50:12.372Z,0.80
2023-09-23T08:52:39.197Z,0.57
2023-09-23T08:55:08.681Z,0.60
2023-09-23T08:57:35.619Z,0.68
2023-09-23T09:00:03.369Z,0.60
2023-09-23T09:02:30.627Z,0.50
2023-09-23T09:04:58.653Z,0.50
2023-09-23T09:07:39.249Z,0.65
2023-09-23T09:10:07.203Z,0.60
2023-09-23T09:12:35.407Z,0.60
2023-09-23T09:15:02.617Z,0.80
2023-09-23T09:17:29.355Z,0.60
2023-09-23T09:19:56.168Z,0.47
2023-09-23T09:22:22.989Z,0.50
2023-09-23T09:24:49.880Z,0.60
2023-09-23T09:27:17.194Z,0.40
2023-09-23T09:29:44.673Z,0.40
2023-09-23T09:32:12.221Z,0.50
2023-09-23T09:34:44.926Z,0.60
2023-09-23T09:39:49.170Z,0.50
2023-09-23T09:42:21.756Z,0.50
2023-09-23T09:47:18.406Z,0.68
2023-09-23T09:49:46.518Z,0.40
2023-09-23T09:52:15.125Z,0.40
2023-09-23T09:54:43.978Z,0.50
2023-09-23T09:57:13.980Z,0.50
2023-09-23T09:59:43.332Z,0.50
2023-09-23T10:02:11.663Z,0.32
2023-09-23T10:04:38.563Z,0.40
2023-09-23T10:07:09.021Z,0.50
2023-09-23T10:09:39.474Z,0.40
2023-09-23T10:12:08.419Z,0.55
2023-09-23T10:14:35.329Z,0.40
2023-09-23T10:17:05.664Z,0.52
2023-09-23T10:19:40.005Z,0.50
2023-09-23T10:22:14.866Z,0.50
2023-09-23T10:24:42.139Z,1.45
2023-09-23T10:27:12.963Z,0.50
2023-09-23T10:29:48.442Z,0.45
2023-09-23T10:32:16.627Z,0.70
2023-09-23T10:34:56.816Z,0.40
2023-09-23T10:37:27.850Z,0.65
2023-09-23T10:39:56.283Z,0.60
2023-09-23T11:04:05.544Z,0.80
2023-09-23T11:06:33.052Z,0.65
2023-09-23T11:09:01.289Z,0.70
2023-09-23T11:11:28.340Z,0.50
2023-09-23T11:13:55.571Z,0.63
2023-09-23T11:16:24.092Z,0.95
2023-09-23T11:18:52.546Z,1.25
2023-09-23T11:21:19.544Z,0.73
2023-09-23T11:23:56.038Z,0.75
2023-09-23T11:26:23.888Z,0.60
2023-09-23T11:28:51.603Z,0.50
2023-09-23T11:31:18.682Z,0.47
2023-09-23T11:33:46.232Z,0.80
2023-09-23T11:36:13.595Z,0.60
2023-09-23T11:38:41.879Z,2.92
2023-09-23T11:41:09.166Z,2.13
2023-09-23T11:43:36.093Z,1.60
2023-09-23T11:46:03.068Z,0.93
2023-09-23T11:48:30.273Z,0.50
2023-09-23T11:50:58.243Z,0.80
2023-09-23T11:53:26.241Z,0.68
2023-09-23T11:55:53.299Z,0.50
2023-09-23T11:58:21.046Z,0.50
2023-09-23T12:00:51.137Z,0.70
2023-09-23T12:03:19.659Z,0.30
2023-09-23T12:05:46.856Z,0.90
2023-09-23T12:08:14.105Z,0.47
2023-09-23T12:10:40.999Z,0.50
2023-09-23T12:13:08.438Z,0.70
2023-09-23T12:15:35.640Z,0.40
2023-09-23T12:18:02.658Z,0.40
2023-09-23T12:20:29.705Z,0.50
2023-09-23T12:22:59.866Z,0.50
2023-09-23T12:25:26.779Z,0.35
2023-09-23T12:27:53.572Z,0.50
2023-09-23T12:30:20.579Z,0.52
2023-09-23T12:32:47.389Z,0.47
2023-09-23T12:35:14.575Z,0.40
2023-09-23T12:37:41.724Z,0.40
2023-09-23T12:40:09.035Z,0.43
2023-09-23T12:42:35.843Z,0.50
2023-09-23T12:45:06.074Z,0.50
2023-09-23T12:47:49.041Z,0.40
2023-09-23T12:50:20.134Z,0.40
2023-09-23T12:52:47.498Z,0.50
2023-09-23T12:55:14.281Z,0.60
2023-09-23T12:57:40.988Z,0.47
2023-09-23T13:00:08.713Z,0.45
2023-09-23T13:02:35.733Z,0.40
2023-09-23T13:05:03.461Z,0.40
2023-09-23T13:07:30.423Z,0.30
2023-09-23T13:09:57.314Z,0.40
2023-09-23T13:12:24.250Z,0.50
2023-09-23T13:14:51.151Z,0.40
2023-09-23T13:17:18.021Z,0.70
2023-09-23T13:19:44.826Z,0.35
2023-09-23T13:22:11.613Z,0.40
2023-09-23T13:24:38.434Z,0.52
2023-09-23T13:27:05.315Z,0.40
2023-09-23T13:29:32.808Z,0.38
2023-09-23T13:32:00.779Z,0.40
2023-09-23T13:34:27.723Z,0.47
2023-09-23T13:36:54.518Z,0.50
2023-09-23T13:39:21.313Z,0.98
2023-09-23T13:41:48.131Z,0.40
2023-09-23T13:44:14.953Z,0.50
2023-09-23T13:46:41.830Z,0.40
2023-09-23T13:49:08.653Z,0.90
2023-09-23T13:51:35.418Z,0.40
2023-09-23T13:54:02.262Z,0.50
2023-09-23T13:56:29.140Z,0.60
2023-09-23T13:58:55.936Z,0.88
2023-09-23T14:01:22.723Z,0.45
2023-09-23T14:03:49.599Z,0.38
2023-09-23T14:06:16.347Z,0.95
2023-09-23T14:08:44.280Z,0.70
2023-09-23T14:11:11.388Z,2.10
2023-09-23T14:13:38.673Z,1.02
2023-09-23T14:16:05.592Z,0.60
2023-09-23T14:18:32.398Z,3.08
2023-09-23T14:20:59.598Z,4.45
2023-09-23T14:23:26.499Z,1.40
2023-09-23T14:25:53.201Z,0.55
2023-09-23T14:28:19.981Z,0.50
2023-09-23T14:30:46.690Z,0.57
2023-09-23T14:33:13.524Z,0.40
2023-09-23T14:35:40.619Z,0.40
2023-09-23T14:38:07.625Z,0.85
2023-09-23T14:40:34.684Z,0.40
2023-09-23T14:43:01.495Z,0.30
2023-09-23T14:45:28.217Z,0.50
2023-09-23T14:47:55.111Z,1.88
2023-09-23T14:50:22.632Z,0.70
2023-09-23T14:52:49.766Z,1.20
2023-09-23T14:55:17.632Z,1.17
2023-09-23T14:57:44.504Z,0.65
2023-09-23T15:00:11.986Z,0.60
2023-09-23T15:02:38.921Z,0.70
2023-09-23T15:05:06.304Z,0.50
2023-09-23T15:07:33.121Z,0.70
2023-09-23T15:09:59.963Z,0.50
2023-09-23T15:12:26.676Z,0.50
2023-09-23T15:14:53.514Z,0.50
2023-09-23T15:17:20.276Z,0.65
2023-09-23T15:19:47.037Z,0.52
2023-09-23T15:22:13.758Z,0.40
2023-09-23T15:24:44.910Z,0.88
2023-09-23T15:27:12.680Z,0.40
2023-09-23T15:29:39.760Z,0.70
2023-09-23T15:32:06.812Z,0.65
2023-09-23T15:34:33.592Z,0.60
2023-09-23T15:37:00.350Z,0.30
2023-09-23T15:39:27.074Z,0.60
2023-09-23T15:41:53.812Z,0.65
2023-09-23T15:44:20.544Z,0.40
2023-09-23T15:46:47.303Z,0.40
2023-09-23T15:49:14.314Z,0.50
2023-09-23T15:51:41.208Z,0.70
2023-09-23T15:54:07.920Z,0.50
2023-09-23T15:56:40.650Z,0.40
2023-09-23T15:59:08.210Z,0.40
2023-09-23T16:01:36.135Z,0.60
2023-09-23T16:04:03.422Z,0.65
2023-09-23T16:06:30.398Z,0.70
2023-09-23T16:08:57.134Z,0.70
2023-09-23T16:11:24.405Z,0.73
2023-09-23T16:13:51.201Z,0.52
2023-09-23T16:16:18.077Z,0.52
2023-09-23T16:18:45.034Z,0.45
2023-09-23T16:21:11.873Z,0.50
2023-09-23T16:23:38.637Z,0.65
2023-09-23T16:26:05.469Z,0.40
2023-09-23T16:28:32.951Z,0.40
2023-09-23T16:30:59.775Z,0.40
2023-09-23T16:33:26.672Z,0.30
2023-09-23T16:35:53.471Z,0.47
2023-09-23T16:38:20.293Z,0.40
2023-09-23T16:40:50.993Z,0.40
2023-09-23T16:45:48.392Z,0.60
2023-09-23T16:48:15.760Z,0.50
2023-09-23T16:50:43.051Z,0.90
2023-09-23T16:53:10.875Z,3.90
2023-09-23T16:55:38.289Z,2.08
2023-09-23T16:58:05.177Z,0.70
2023-09-23T17:00:32.014Z,2.15
2023-09-23T17:02:59.871Z,3.20
2023-09-23T17:05:26.802Z,2.05
2023-09-23T17:07:53.677Z,0.73
2023-09-23T17:10:20.405Z,0.80
2023-09-23T17:12:47.120Z,0.50
2023-09-23T17:15:13.922Z,0.60
2023-09-23T17:17:40.873Z,0.50
2023-09-23T17:20:08.403Z,0.50
2023-09-23T17:22:35.111Z,0.70
2023-09-23T17:25:01.910Z,0.60
2023-09-23T17:27:28.772Z,0.60
2023-09-23T17:29:55.659Z,0.43
2023-09-23T17:32:22.600Z,0.50
2023-09-23T17:34:49.383Z,0.70
2023-09-23T17:37:16.139Z,1.40
2023-09-23T17:39:42.854Z,1.20
2023-09-23T17:42:11.438Z,1.20
2023-09-23T17:44:38.604Z,1.02
2023-09-23T17:47:05.993Z,1.60
2023-09-23T17:49:32.753Z,1.30
2023-09-23T17:51:59.458Z,2.10
2023-09-23T17:54:26.268Z,0.80
2023-09-23T17:56:53.855Z,1.02
2023-09-23T17:59:20.689Z,5.45
2023-09-23T18:01:47.699Z,7.85
2023-09-23T18:04:14.660Z,6.03
2023-09-23T18:06:41.528Z,4.88
2023-09-23T18:09:08.335Z,2.47
2023-09-23T18:11:35.550Z,1.70
2023-09-23T18:14:05.317Z,1.10
2023-09-23T18:16:32.471Z,0.98
2023-09-23T18:18:59.386Z,0.80
2023-09-23T18:21:26.632Z,0.90
2023-09-23T18:23:53.458Z,1.02
2023-09-23T18:26:20.222Z,0.80
2023-09-23T18:28:47.293Z,1.30
2023-09-23T18:31:14.450Z,1.40
2023-09-23T18:33:41.873Z,1.60
2023-09-23T18:36:08.957Z,1.23
2023-09-23T18:38:35.790Z,1.90
2023-09-23T18:41:02.967Z,1.10
2023-09-23T18:43:29.808Z,1.20
2023-09-23T18:45:56.632Z,1.15
2023-09-23T18:48:27.979Z,1.60
2023-09-23T18:53:22.770Z,1.98
2023-09-23T18:55:49.748Z,1.67
2023-09-23T18:58:16.581Z,1.50
2023-09-23T19:00:44.512Z,2.13
2023-09-23T19:03:11.454Z,1.75
2023-09-23T19:05:39.618Z,2.63
2023-09-23T19:08:06.987Z,1.80
2023-09-23T19:10:33.744Z,1.10
2023-09-23T19:13:00.599Z,0.98
2023-09-23T19:15:28.287Z,0.90
2023-09-23T19:17:56.773Z,0.90
2023-09-23T19:20:24.304Z,0.90
2023-09-23T19:22:51.091Z,1.00
2023-09-23T19:25:17.816Z,1.00
2023-09-23T19:27:44.562Z,1.20
2023-09-23T19:30:14.485Z,1.10
2023-09-23T19:32:42.600Z,1.20
2023-09-23T19:35:10.312Z,1.08
2023-09-23T19:37:38.990Z,1.20
2023-09-23T19:40:07.318Z,1.05
2023-09-23T19:42:34.370Z,1.30
2023-09-23T19:45:04.643Z,1.85
2023-09-23T19:47:32.601Z,3.20
2023-09-23T19:50:00.656Z,2.03
2023-09-23T19:52:30.366Z,1.85
2023-09-23T19:54:57.506Z,1.00
2023-09-23T19:57:25.918Z,1.00
2023-09-23T19:59:52.911Z,0.80
2023-09-23T20:02:19.942Z,1.13
2023-09-23T20:04:47.184Z,1.17
2023-09-23T20:07:14.266Z,0.80
2023-09-23T20:09:41.571Z,1.00
2023-09-23T20:12:08.449Z,0.80
2023-09-23T20:14:37.972Z,0.85
2023-09-23T20:17:05.423Z,0.82
2023-09-23T20:19:32.242Z,1.05
2023-09-23T20:21:58.991Z,1.40
2023-09-23T20:24:25.740Z,0.95
2023-09-23T20:26:54.172Z,1.00
2023-09-23T20:29:22.162Z,1.85
2023-09-23T20:31:49.828Z,3.33
2023-09-23T20:34:18.012Z,4.13
2023-09-23T20:36:45.628Z,1.20
2023-09-23T20:39:13.213Z,1.20
2023-09-23T20:41:40.424Z,1.02
2023-09-23T20:44:07.523Z,1.20
2023-09-23T20:46:34.618Z,1.10
2023-09-23T20:49:01.735Z,1.20
2023-09-23T20:51:29.358Z,1.10
2023-09-23T20:53:56.759Z,1.10
2023-09-23T20:56:23.978Z,1.30
2023-09-23T20:58:50.882Z,1.10
2023-09-23T21:01:17.784Z,1.35
2023-09-23T21:03:44.735Z,1.30
2023-09-23T21:06:11.802Z,1.23
2023-09-23T21:08:38.708Z,1.10
2023-09-23T21:11:05.558Z,1.45
2023-09-23T21:13:32.311Z,1.55
2023-09-23T21:16:05.635Z,1.80
2023-09-23T21:18:33.014Z,1.10
2023-09-23T21:20:59.901Z,1.02
2023-09-23T21:23:26.768Z,1.00
2023-09-23T21:25:53.733Z,1.13
2023-09-23T21:28:20.583Z,1.00
2023-09-23T21:30:47.597Z,1.08
2023-09-23T21:33:15.009Z,1.10
2023-09-23T21:35:42.529Z,1.17
2023-09-23T21:38:09.555Z,0.95
2023-09-23T21:40:40.920Z,0.98
2023-09-23T21:43:09.025Z,0.80
2023-09-23T21:45:39.091Z,0.90
2023-09-23T21:48:10.151Z,1.10
2023-09-23T21:50:37.090Z,1.10
2023-09-23T21:53:05.309Z,0.90
2023-09-23T21:55:32.060Z,1.05
2023-09-23T21:57:58.921Z,1.58
2023-09-23T22:00:29.234Z,1.20
2023-09-23T22:02:58.954Z,1.25
2023-09-23T22:05:26.882Z,1.05
2023-09-23T22:08:05.080Z,1.05
2023-09-23T22:10:32.017Z,1.20
2023-09-23T22:13:00.271Z,1.08
2023-09-23T22:15:28.981Z,1.30
2023-09-23T22:17:58.553Z,1.08
2023-09-23T22:20:28.151Z,1.02
2023-09-23T22:22:55.368Z,1.25
2023-09-23T22:25:23.134Z,1.08
2023-09-23T22:27:54.295Z,1.20
2023-09-23T22:30:25.769Z,1.48
2023-09-23T22:32:57.562Z,1.80
2023-09-23T22:35:26.127Z,1.10
2023-09-23T22:37:53.106Z,1.30
2023-09-23T22:40:20.090Z,1.10
2023-09-23T22:42:48.046Z,0.80
2023-09-23T22:45:24.142Z,0.98
2023-09-23T22:47:59.603Z,0.80
2023-09-23T22:50:27.644Z,0.70
2023-09-23T22:52:57.140Z,0.60
2023-09-23T22:55:25.640Z,1.00
2023-09-23T22:57:52.610Z,1.00
2023-09-23T23:00:22.308Z,1.10
2023-09-23T23:02:49.509Z,1.20
2023-09-23T23:05:16.831Z,1.13
2023-09-23T23:07:53.280Z,0.90
2023-09-23T23:10:21.038Z,1.20
2023-09-23T23:12:48.494Z,1.10
2023-09-23T23:15:17.250Z,1.20
2023-09-23T23:17:46.417Z,0.90
2023-09-23T23:20:25.236Z,0.80
2023-09-23T23:22:53.782Z,1.17
2023-09-23T23:25:21.588Z,1.00
2023-09-23T23:27:48.453Z,0.70
2023-09-23T23:30:17.681Z,0.70
2023-09-23T23:32:45.081Z,0.80
2023-09-23T23:35:12.015Z,0.82
2023-09-23T23:37:39.031Z,1.10
2023-09-23T23:40:06.905Z,0.90
2023-09-23T23:42:35.156Z,1.05
2023-09-23T23:45:02.152Z,0.80
2023-09-23T23:47:29.004Z,0.80
2023-09-23T23:49:56.115Z,0.90
2023-09-23T23:52:23.464Z,0.90
2023-09-23T23:54:50.190Z,0.80
2023-09-23T23:57:17.733Z,1.00
2023-09-23T23:59:45.547Z,0.68
